Roosevelt, Oklahoma
Current Conditions -  °F | °C
As of 10:53 AM on Friday 21 Nov 2014 (Local Time) from KHBR Reporting Station
Clear Clear  
Wind Chill: 10°   Ceiling: Unl
Heat Index: 10°   Visibility: 10mi
Dew Point:   Wind: 7mph
Humidity: 80%   Direction: 210°SSW
Pressure: 30.08"   Gusts: NA
Location:  34.85°N, 99.02°W
Report Text: KHBR 211653Z AUTO 21006KT 10SM CLR 10/07 A3008 RMK AO2 SLP187 T01000067
Loading
Personal Weather Stations






























Interactive Weather Map New forecast layout! Learn more

10-Day Weather Forecast

Advertisements
Track Severe Weather on mobile